Accueil
METAR-TAF:

METAR-TAF

Aéroports :

Aéroport de Morlaix Ploujean

Morlaix, France

latitude: 48-36N, longitude: 3-49W, altitude: 84 m

Observation

Le bulletin a été fait il y a 35 minutes, à 16:30 UTC
Vent 10 kt de nord/nord-est, variant entre nord et nord-est
Température 11°C
Humidité 76%
Pression 1031 hPa
Visibilité 10 km ou plus
Nuages fragmentés à une hauteur de 1700 ft

METAR: LFRU 241630Z AUTO 03010KT 350V050 9999 BKN017 11/07 Q1031

Heure: 18:05 (17:05 UTC)


TAF: absent

Observations et prévisions météorologiques de plus de 4000 aéroports (messages METAR et TAF).

Les stations disponibles sont représentées par des disques jaunes et rouges sur la carte.

Passer la souris dessus pour voir le nom de la station.

Cliquer dessus pour voir les observations et prévisions météorologiques.

Pour changer de carte: cliquez sur les boutons verts avec une croix noire pour zoomer, sur le bouton vert avec un tiret pour effectuer un zoom arrière, ou sur les flèches vertes pour les cartes adjacentes.


METAR-TAF: